Flugplatz Finsterwalde/Schacksdorf

Für EDUS sind keine METAR/TAF Berichte vorhanden.
Es werden die Flugwettermeldungen vom Flugplatz Holzdorf Airport in 43 km Entfernung angezeigt.

Bericht für ETSH

vom 07.03. um 02:20 UTC

Wind 7 kt aus 250°

Sichtweite 10 km oder mehr

gering bewölkt in 2000 ft

aufgebrochene Bewölkung in 4500 ft

Temperatur 3.0°C

Taupunkt -1.0°C

Luftfeuchtigkeit 75%

Luftdruck 1025 hPa

ETSH 070220Z 25007KT 9999 FEW020 BKN045 03/M01 Q1025 BLACKBLU
Keine Prognose (TAF) verfügbar.
Impressum